sensor_id;sensor_type;location;lat;lon;timestamp;temperature;humidity
33476;DHT22;19814;48.224;11.422;2024-01-15T00:01:07;0.10;99.90
33476;DHT22;19814;48.224;11.422;2024-01-15T00:03:32;0.10;99.90
33476;DHT22;19814;48.224;11.422;2024-01-15T00:05:57;0.10;99.90
33476;DHT22;19814;48.224;11.422;2024-01-15T00:08:23;0.10;99.90
33476;DHT22;19814;48.224;11.422;2024-01-15T00:10:48;0.10;99.90
33476;DHT22;19814;48.224;11.422;2024-01-15T00:13:14;0.10;99.90
33476;DHT22;19814;48.224;11.422;2024-01-15T00:15:39;0.10;99.90
33476;DHT22;19814;48.224;11.422;2024-01-15T00:18:05;0.20;99.90
33476;DHT22;19814;48.224;11.422;2024-01-15T00:20:30;0.30;99.90
33476;DHT22;19814;48.224;11.422;2024-01-15T00:22:56;0.30;99.90
33476;DHT22;19814;48.224;11.422;2024-01-15T00:25:21;0.30;99.90
33476;DHT22;19814;48.224;11.422;2024-01-15T00:27:46;0.30;99.90
33476;DHT22;19814;48.224;11.422;2024-01-15T00:30:12;0.30;99.90
33476;DHT22;19814;48.224;11.422;2024-01-15T00:32:38;0.20;99.90
33476;DHT22;19814;48.224;11.422;2024-01-15T00:35:04;0.10;99.90
33476;DHT22;19814;48.224;11.422;2024-01-15T00:37:29;-0.20;99.90
33476;DHT22;19814;48.224;11.422;2024-01-15T00:39:55;-0.20;99.90
33476;DHT22;19814;48.224;11.422;2024-01-15T00:42:20;-0.30;99.90
33476;DHT22;19814;48.224;11.422;2024-01-15T00:44:45;-0.30;99.90
33476;DHT22;19814;48.224;11.422;2024-01-15T00:47:11;-0.30;99.90
33476;DHT22;19814;48.224;11.422;2024-01-15T00:49:36;-0.30;99.90
33476;DHT22;19814;48.224;11.422;2024-01-15T00:52:02;-0.40;99.90
33476;DHT22;19814;48.224;11.422;2024-01-15T00:54:27;-0.40;99.90
33476;DHT22;19814;48.224;11.422;2024-01-15T00:56:53;-0.40;99.90
33476;DHT22;19814;48.224;11.422;2024-01-15T00:59:20;-0.40;99.90
33476;DHT22;19814;48.224;11.422;2024-01-15T01:01:46;-0.40;99.90
33476;DHT22;19814;48.224;11.422;2024-01-15T01:04:11;-0.40;99.90
33476;DHT22;19814;48.224;11.422;2024-01-15T01:06:37;-0.30;99.90
33476;DHT22;19814;48.224;11.422;2024-01-15T01:09:03;-0.30;99.90
33476;DHT22;19814;48.224;11.422;2024-01-15T01:11:28;-0.20;99.90
33476;DHT22;19814;48.224;11.422;2024-01-15T01:13:54;-0.20;99.90
33476;DHT22;19814;48.224;11.422;2024-01-15T01:16:19;-0.20;99.90
33476;DHT22;19814;48.224;11.422;2024-01-15T01:18:45;-0.20;99.90
33476;DHT22;19814;48.224;11.422;2024-01-15T01:21:10;-0.20;99.90
33476;DHT22;19814;48.224;11.422;2024-01-15T01:23:36;-0.20;99.90
33476;DHT22;19814;48.224;11.422;2024-01-15T01:26:01;-0.30;99.90
33476;DHT22;19814;48.224;11.422;2024-01-15T01:28:27;-0.30;99.90
33476;DHT22;19814;48.224;11.422;2024-01-15T01:30:53;-0.40;99.90
33476;DHT22;19814;48.224;11.422;2024-01-15T01:33:18;-0.40;99.90
33476;DHT22;19814;48.224;11.422;2024-01-15T01:35:44;-0.50;99.90
33476;DHT22;19814;48.224;11.422;2024-01-15T01:38:10;-0.50;99.90
33476;DHT22;19814;48.224;11.422;2024-01-15T01:40:35;-0.60;99.90
33476;DHT22;19814;48.224;11.422;2024-01-15T01:43:02;-0.60;99.90
33476;DHT22;19814;48.224;11.422;2024-01-15T01:45:28;-0.60;99.90
33476;DHT22;19814;48.224;11.422;2024-01-15T01:47:53;-0.60;99.90
33476;DHT22;19814;48.224;11.422;2024-01-15T01:50:18;-0.70;99.80
33476;DHT22;19814;48.224;11.422;2024-01-15T01:52:44;-0.70;99.70
33476;DHT22;19814;48.224;11.422;2024-01-15T01:55:10;-0.70;99.70
33476;DHT22;19814;48.224;11.422;2024-01-15T01:57:36;-0.70;99.60
33476;DHT22;19814;48.224;11.422;2024-01-15T02:00:02;-0.70;99.50
33476;DHT22;19814;48.224;11.422;2024-01-15T02:02:29;-0.80;99.80
33476;DHT22;19814;48.224;11.422;2024-01-15T02:04:55;-0.80;99.90
33476;DHT22;19814;48.224;11.422;2024-01-15T02:07:21;-0.80;99.90
33476;DHT22;19814;48.224;11.422;2024-01-15T02:09:46;-0.90;99.90
33476;DHT22;19814;48.224;11.422;2024-01-15T02:12:12;-0.90;99.90
33476;DHT22;19814;48.224;11.422;2024-01-15T02:14:37;-1.00;99.90
33476;DHT22;19814;48.224;11.422;2024-01-15T02:17:04;-1.00;99.90
33476;DHT22;19814;48.224;11.422;2024-01-15T02:19:29;-1.10;99.90
33476;DHT22;19814;48.224;11.422;2024-01-15T02:21:55;-1.00;99.90
33476;DHT22;19814;48.224;11.422;2024-01-15T02:24:20;-1.10;99.90
33476;DHT22;19814;48.224;11.422;2024-01-15T02:26:46;-1.10;99.90
33476;DHT22;19814;48.224;11.422;2024-01-15T02:29:11;-1.10;99.90
33476;DHT22;19814;48.224;11.422;2024-01-15T02:31:37;-1.20;99.90
33476;DHT22;19814;48.224;11.422;2024-01-15T02:34:03;-1.20;99.90
33476;DHT22;19814;48.224;11.422;2024-01-15T02:36:28;-1.20;99.90
33476;DHT22;19814;48.224;11.422;2024-01-15T02:38:54;-1.20;99.90
33476;DHT22;19814;48.224;11.422;2024-01-15T02:41:19;-1.20;99.90
33476;DHT22;19814;48.224;11.422;2024-01-15T02:43:45;-1.30;99.90
33476;DHT22;19814;48.224;11.422;2024-01-15T02:46:10;-1.30;99.90
33476;DHT22;19814;48.224;11.422;2024-01-15T02:48:35;-1.30;99.90
33476;DHT22;19814;48.224;11.422;2024-01-15T02:51:01;-1.30;99.90
33476;DHT22;19814;48.224;11.422;2024-01-15T02:53:27;-1.30;99.90
33476;DHT22;19814;48.224;11.422;2024-01-15T02:55:52;-1.30;99.90
33476;DHT22;19814;48.224;11.422;2024-01-15T02:58:18;-1.30;99.90
33476;DHT22;19814;48.224;11.422;2024-01-15T03:00:43;-1.20;99.90
33476;DHT22;19814;48.224;11.422;2024-01-15T03:03:09;-1.20;99.90
33476;DHT22;19814;48.224;11.422;2024-01-15T03:05:34;-1.20;99.90
33476;DHT22;19814;48.224;11.422;2024-01-15T03:08:00;-1.20;99.90
33476;DHT22;19814;48.224;11.422;2024-01-15T03:10:25;-1.10;99.90
33476;DHT22;19814;48.224;11.422;2024-01-15T03:12:51;-1.10;99.90
33476;DHT22;19814;48.224;11.422;2024-01-15T03:15:16;-1.10;99.90
33476;DHT22;19814;48.224;11.422;2024-01-15T03:17:43;-1.10;99.90
33476;DHT22;19814;48.224;11.422;2024-01-15T03:20:09;-1.10;99.90
33476;DHT22;19814;48.224;11.422;2024-01-15T03:22:34;-1.20;99.90
33476;DHT22;19814;48.224;11.422;2024-01-15T03:25:00;-1.20;99.90
33476;DHT22;19814;48.224;11.422;2024-01-15T03:27:25;-1.20;99.90
33476;DHT22;19814;48.224;11.422;2024-01-15T03:29:51;-1.30;99.90
33476;DHT22;19814;48.224;11.422;2024-01-15T03:32:16;-1.30;99.90
33476;DHT22;19814;48.224;11.422;2024-01-15T03:34:42;-1.30;99.90
33476;DHT22;19814;48.224;11.422;2024-01-15T03:37:07;-1.40;99.90
33476;DHT22;19814;48.224;11.422;2024-01-15T03:39:33;-1.40;99.90
33476;DHT22;19814;48.224;11.422;2024-01-15T03:41:58;-1.40;99.90
33476;DHT22;19814;48.224;11.422;2024-01-15T03:44:23;-1.50;99.90
33476;DHT22;19814;48.224;11.422;2024-01-15T03:46:49;-1.50;99.90
33476;DHT22;19814;48.224;11.422;2024-01-15T03:49:15;-1.50;99.90
33476;DHT22;19814;48.224;11.422;2024-01-15T03:51:40;-1.50;99.90
33476;DHT22;19814;48.224;11.422;2024-01-15T03:54:06;-1.50;99.90
33476;DHT22;19814;48.224;11.422;2024-01-15T03:56:31;-1.40;99.90
33476;DHT22;19814;48.224;11.422;2024-01-15T03:58:57;-1.50;99.90
33476;DHT22;19814;48.224;11.422;2024-01-15T04:01:22;-1.50;99.90
33476;DHT22;19814;48.224;11.422;2024-01-15T04:03:48;-1.50;99.90
33476;DHT22;19814;48.224;11.422;2024-01-15T04:06:13;-1.50;99.90
33476;DHT22;19814;48.224;11.422;2024-01-15T04:08:39;-1.50;99.90
33476;DHT22;19814;48.224;11.422;2024-01-15T04:11:04;-1.40;99.90
33476;DHT22;19814;48.224;11.422;2024-01-15T04:13:32;-1.40;99.90
33476;DHT22;19814;48.224;11.422;2024-01-15T04:15:57;-1.40;99.90
33476;DHT22;19814;48.224;11.422;2024-01-15T04:18:23;-1.40;99.90
33476;DHT22;19814;48.224;11.422;2024-01-15T04:20:48;-1.30;99.90
33476;DHT22;19814;48.224;11.422;2024-01-15T04:23:13;-1.20;99.90
33476;DHT22;19814;48.224;11.422;2024-01-15T04:25:39;-1.20;99.90
33476;DHT22;19814;48.224;11.422;2024-01-15T04:28:08;-1.10;99.90
33476;DHT22;19814;48.224;11.422;2024-01-15T04:30:33;-1.10;99.90
33476;DHT22;19814;48.224;11.422;2024-01-15T04:32:59;-1.10;99.90
33476;DHT22;19814;48.224;11.422;2024-01-15T04:35:24;-1.10;99.90
33476;DHT22;19814;48.224;11.422;2024-01-15T04:37:50;-1.00;99.90
33476;DHT22;19814;48.224;11.422;2024-01-15T04:40:15;-1.00;99.90
33476;DHT22;19814;48.224;11.422;2024-01-15T04:42:40;-1.00;99.90
33476;DHT22;19814;48.224;11.422;2024-01-15T04:45:06;-1.00;99.90
33476;DHT22;19814;48.224;11.422;2024-01-15T04:47:31;-0.90;99.90
33476;DHT22;19814;48.224;11.422;2024-01-15T04:49:57;-1.00;99.90
33476;DHT22;19814;48.224;11.422;2024-01-15T04:52:22;-1.00;99.90
33476;DHT22;19814;48.224;11.422;2024-01-15T04:54:48;-0.90;99.90
33476;DHT22;19814;48.224;11.422;2024-01-15T04:57:14;-0.90;99.90
33476;DHT22;19814;48.224;11.422;2024-01-15T04:59:40;-1.00;99.90
33476;DHT22;19814;48.224;11.422;2024-01-15T05:02:05;-0.90;99.90
33476;DHT22;19814;48.224;11.422;2024-01-15T05:04:31;-0.90;99.90
33476;DHT22;19814;48.224;11.422;2024-01-15T05:06:58;-0.90;99.90
33476;DHT22;19814;48.224;11.422;2024-01-15T05:09:23;-0.90;99.90
33476;DHT22;19814;48.224;11.422;2024-01-15T05:11:48;-0.90;99.90
33476;DHT22;19814;48.224;11.422;2024-01-15T05:14:14;-0.80;99.90
33476;DHT22;19814;48.224;11.422;2024-01-15T05:16:40;-0.90;99.90
33476;DHT22;19814;48.224;11.422;2024-01-15T05:19:06;-0.80;99.90
33476;DHT22;19814;48.224;11.422;2024-01-15T05:21:32;-0.70;99.90
33476;DHT22;19814;48.224;11.422;2024-01-15T05:23:57;-0.80;99.90
33476;DHT22;19814;48.224;11.422;2024-01-15T05:26:23;-0.70;99.90
33476;DHT22;19814;48.224;11.422;2024-01-15T05:28:48;-0.70;99.90
33476;DHT22;19814;48.224;11.422;2024-01-15T05:31:14;-0.70;99.90
33476;DHT22;19814;48.224;11.422;2024-01-15T05:33:39;-0.70;99.90
33476;DHT22;19814;48.224;11.422;2024-01-15T05:36:05;-0.70;99.90
33476;DHT22;19814;48.224;11.422;2024-01-15T05:38:31;-0.70;99.90
33476;DHT22;19814;48.224;11.422;2024-01-15T05:40:56;-0.60;99.90
33476;DHT22;19814;48.224;11.422;2024-01-15T05:43:22;-0.70;99.90
33476;DHT22;19814;48.224;11.422;2024-01-15T05:45:47;-0.60;99.90
33476;DHT22;19814;48.224;11.422;2024-01-15T05:48:13;-0.60;99.90
33476;DHT22;19814;48.224;11.422;2024-01-15T05:50:38;-0.60;99.90
33476;DHT22;19814;48.224;11.422;2024-01-15T05:53:04;-0.60;99.90
33476;DHT22;19814;48.224;11.422;2024-01-15T05:55:30;-0.60;99.90
33476;DHT22;19814;48.224;11.422;2024-01-15T05:57:55;-0.70;99.90
33476;DHT22;19814;48.224;11.422;2024-01-15T06:00:21;-0.70;99.90
33476;DHT22;19814;48.224;11.422;2024-01-15T06:02:46;-0.70;99.90
33476;DHT22;19814;48.224;11.422;2024-01-15T06:05:11;-0.60;99.90
33476;DHT22;19814;48.224;11.422;2024-01-15T06:07:37;-0.60;99.90
33476;DHT22;19814;48.224;11.422;2024-01-15T06:10:03;-0.60;99.90
33476;DHT22;19814;48.224;11.422;2024-01-15T06:12:30;-0.60;99.90
33476;DHT22;19814;48.224;11.422;2024-01-15T06:14:55;-0.60;99.90
33476;DHT22;19814;48.224;11.422;2024-01-15T06:17:20;-0.60;99.90
33476;DHT22;19814;48.224;11.422;2024-01-15T06:19:46;-0.60;99.90
33476;DHT22;19814;48.224;11.422;2024-01-15T06:22:11;-0.60;99.90
33476;DHT22;19814;48.224;11.422;2024-01-15T06:24:37;-0.60;99.90
33476;DHT22;19814;48.224;11.422;2024-01-15T06:27:02;-0.60;99.90
33476;DHT22;19814;48.224;11.422;2024-01-15T06:29:28;-0.50;99.90
33476;DHT22;19814;48.224;11.422;2024-01-15T06:31:53;-0.50;99.90
33476;DHT22;19814;48.224;11.422;2024-01-15T06:34:19;-0.50;99.90
33476;DHT22;19814;48.224;11.422;2024-01-15T06:36:44;-0.50;99.90
33476;DHT22;19814;48.224;11.422;2024-01-15T06:39:10;-0.50;99.90
33476;DHT22;19814;48.224;11.422;2024-01-15T06:41:35;-0.50;99.90
33476;DHT22;19814;48.224;11.422;2024-01-15T06:44:06;-0.40;99.90
33476;DHT22;19814;48.224;11.422;2024-01-15T06:46:32;-0.40;99.90
33476;DHT22;19814;48.224;11.422;2024-01-15T06:48:57;-0.40;99.90
33476;DHT22;19814;48.224;11.422;2024-01-15T06:51:22;-0.40;99.90
33476;DHT22;19814;48.224;11.422;2024-01-15T06:53:48;-0.40;99.90
33476;DHT22;19814;48.224;11.422;2024-01-15T06:56:13;-0.30;99.90
33476;DHT22;19814;48.224;11.422;2024-01-15T06:58:39;-0.40;99.90
33476;DHT22;19814;48.224;11.422;2024-01-15T07:01:04;-0.30;99.90
33476;DHT22;19814;48.224;11.422;2024-01-15T07:03:30;-0.30;99.90
33476;DHT22;19814;48.224;11.422;2024-01-15T07:05:56;-0.30;99.90
33476;DHT22;19814;48.224;11.422;2024-01-15T07:08:22;-0.40;99.90
33476;DHT22;19814;48.224;11.422;2024-01-15T07:10:47;-0.40;99.90
33476;DHT22;19814;48.224;11.422;2024-01-15T07:13:13;-0.30;99.90
33476;DHT22;19814;48.224;11.422;2024-01-15T07:15:38;-0.30;99.90
33476;DHT22;19814;48.224;11.422;2024-01-15T07:18:03;-0.30;99.90
33476;DHT22;19814;48.224;11.422;2024-01-15T07:20:29;-0.30;99.90
33476;DHT22;19814;48.224;11.422;2024-01-15T07:22:54;-0.30;99.90
33476;DHT22;19814;48.224;11.422;2024-01-15T07:25:20;-0.20;99.90
33476;DHT22;19814;48.224;11.422;2024-01-15T07:27:46;-0.30;99.90
33476;DHT22;19814;48.224;11.422;2024-01-15T07:30:12;-0.20;99.90
33476;DHT22;19814;48.224;11.422;2024-01-15T07:32:38;-0.20;99.90
33476;DHT22;19814;48.224;11.422;2024-01-15T07:35:04;-0.20;99.90
33476;DHT22;19814;48.224;11.422;2024-01-15T07:37:29;-0.20;99.90
33476;DHT22;19814;48.224;11.422;2024-01-15T07:39:55;-0.20;99.90
33476;DHT22;19814;48.224;11.422;2024-01-15T07:42:20;-0.20;99.90
33476;DHT22;19814;48.224;11.422;2024-01-15T07:44:46;-0.20;99.90
33476;DHT22;19814;48.224;11.422;2024-01-15T07:47:12;-0.10;99.90
33476;DHT22;19814;48.224;11.422;2024-01-15T07:49:37;-0.10;99.90
33476;DHT22;19814;48.224;11.422;2024-01-15T07:52:03;-0.10;99.90
33476;DHT22;19814;48.224;11.422;2024-01-15T07:54:30;0.00;99.90
33476;DHT22;19814;48.224;11.422;2024-01-15T07:56:56;0.00;99.90
33476;DHT22;19814;48.224;11.422;2024-01-15T07:59:22;0.10;99.90
33476;DHT22;19814;48.224;11.422;2024-01-15T08:01:48;0.20;99.90
33476;DHT22;19814;48.224;11.422;2024-01-15T08:04:14;0.10;99.90
33476;DHT22;19814;48.224;11.422;2024-01-15T08:06:39;0.20;99.90
33476;DHT22;19814;48.224;11.422;2024-01-15T08:09:05;0.30;99.90
33476;DHT22;19814;48.224;11.422;2024-01-15T08:11:31;0.30;99.90
33476;DHT22;19814;48.224;11.422;2024-01-15T08:13:56;0.30;99.90
33476;DHT22;19814;48.224;11.422;2024-01-15T08:16:22;0.30;99.90
33476;DHT22;19814;48.224;11.422;2024-01-15T08:18:49;0.20;99.90
33476;DHT22;19814;48.224;11.422;2024-01-15T08:21:15;0.30;99.90
33476;DHT22;19814;48.224;11.422;2024-01-15T08:23:40;0.30;99.90
33476;DHT22;19814;48.224;11.422;2024-01-15T08:26:05;0.30;99.90
33476;DHT22;19814;48.224;11.422;2024-01-15T08:28:31;0.30;99.90
33476;DHT22;19814;48.224;11.422;2024-01-15T08:30:56;0.30;99.90
33476;DHT22;19814;48.224;11.422;2024-01-15T08:33:22;0.30;99.90
33476;DHT22;19814;48.224;11.422;2024-01-15T08:35:47;0.40;99.90
33476;DHT22;19814;48.224;11.422;2024-01-15T08:38:13;0.30;99.90
33476;DHT22;19814;48.224;11.422;2024-01-15T08:40:38;0.40;99.90
33476;DHT22;19814;48.224;11.422;2024-01-15T08:43:04;0.30;99.90
33476;DHT22;19814;48.224;11.422;2024-01-15T08:45:32;0.30;99.90
33476;DHT22;19814;48.224;11.422;2024-01-15T08:47:57;0.30;99.90
33476;DHT22;19814;48.224;11.422;2024-01-15T08:50:22;0.40;99.90
33476;DHT22;19814;48.224;11.422;2024-01-15T08:52:48;0.50;99.90
33476;DHT22;19814;48.224;11.422;2024-01-15T08:55:13;0.50;99.90
33476;DHT22;19814;48.224;11.422;2024-01-15T08:57:39;0.50;99.90
33476;DHT22;19814;48.224;11.422;2024-01-15T09:00:05;0.50;99.90
33476;DHT22;19814;48.224;11.422;2024-01-15T09:02:34;0.60;99.90
33476;DHT22;19814;48.224;11.422;2024-01-15T09:04:59;0.60;99.90
33476;DHT22;19814;48.224;11.422;2024-01-15T09:07:24;0.70;99.90
33476;DHT22;19814;48.224;11.422;2024-01-15T09:09:51;0.60;99.90
33476;DHT22;19814;48.224;11.422;2024-01-15T09:12:16;0.70;99.90
33476;DHT22;19814;48.224;11.422;2024-01-15T09:14:43;0.70;99.90
33476;DHT22;19814;48.224;11.422;2024-01-15T09:17:09;0.70;99.90
33476;DHT22;19814;48.224;11.422;2024-01-15T09:19:35;0.80;99.90
33476;DHT22;19814;48.224;11.422;2024-01-15T09:22:00;0.90;99.90
33476;DHT22;19814;48.224;11.422;2024-01-15T09:24:26;0.80;99.90
33476;DHT22;19814;48.224;11.422;2024-01-15T09:26:51;0.80;99.90
33476;DHT22;19814;48.224;11.422;2024-01-15T09:29:17;0.90;99.90
33476;DHT22;19814;48.224;11.422;2024-01-15T09:31:43;0.90;99.90
33476;DHT22;19814;48.224;11.422;2024-01-15T09:34:09;0.90;99.90
33476;DHT22;19814;48.224;11.422;2024-01-15T09:36:41;0.90;99.90
33476;DHT22;19814;48.224;11.422;2024-01-15T09:39:09;0.90;99.90
33476;DHT22;19814;48.224;11.422;2024-01-15T09:41:36;0.90;99.90
33476;DHT22;19814;48.224;11.422;2024-01-15T09:44:03;0.90;99.90
33476;DHT22;19814;48.224;11.422;2024-01-15T09:46:28;1.00;99.90
33476;DHT22;19814;48.224;11.422;2024-01-15T09:48:54;1.10;99.90
33476;DHT22;19814;48.224;11.422;2024-01-15T09:51:19;1.10;99.80
33476;DHT22;19814;48.224;11.422;2024-01-15T09:53:45;1.10;99.60
33476;DHT22;19814;48.224;11.422;2024-01-15T09:56:12;1.10;99.70
33476;DHT22;19814;48.224;11.422;2024-01-15T09:58:38;1.20;99.40
33476;DHT22;19814;48.224;11.422;2024-01-15T10:01:04;1.10;99.50
33476;DHT22;19814;48.224;11.422;2024-01-15T10:03:29;1.20;99.20
33476;DHT22;19814;48.224;11.422;2024-01-15T10:05:55;1.20;98.70
33476;DHT22;19814;48.224;11.422;2024-01-15T10:08:21;1.20;98.70
33476;DHT22;19814;48.224;11.422;2024-01-15T10:10:47;1.20;98.90
33476;DHT22;19814;48.224;11.422;2024-01-15T10:13:13;1.30;98.90
33476;DHT22;19814;48.224;11.422;2024-01-15T10:15:39;1.30;98.70
33476;DHT22;19814;48.224;11.422;2024-01-15T10:18:05;1.30;98.40
33476;DHT22;19814;48.224;11.422;2024-01-15T10:20:32;1.30;98.70
33476;DHT22;19814;48.224;11.422;2024-01-15T10:22:58;1.30;98.90
33476;DHT22;19814;48.224;11.422;2024-01-15T10:25:23;1.30;98.70
33476;DHT22;19814;48.224;11.422;2024-01-15T10:28:00;1.30;98.80
33476;DHT22;19814;48.224;11.422;2024-01-15T10:30:26;1.40;98.90
33476;DHT22;19814;48.224;11.422;2024-01-15T10:33:01;1.50;98.50
33476;DHT22;19814;48.224;11.422;2024-01-15T10:35:30;1.60;98.50
33476;DHT22;19814;48.224;11.422;2024-01-15T10:37:57;1.70;98.30
33476;DHT22;19814;48.224;11.422;2024-01-15T10:40:22;1.90;97.40
33476;DHT22;19814;48.224;11.422;2024-01-15T10:42:48;2.00;97.20
33476;DHT22;19814;48.224;11.422;2024-01-15T10:45:14;2.00;97.10
33476;DHT22;19814;48.224;11.422;2024-01-15T10:47:40;1.80;97.40
33476;DHT22;19814;48.224;11.422;2024-01-15T10:50:06;1.70;97.50
33476;DHT22;19814;48.224;11.422;2024-01-15T10:52:36;1.70;97.40
33476;DHT22;19814;48.224;11.422;2024-01-15T10:55:04;2.10;97.50
33476;DHT22;19814;48.224;11.422;2024-01-15T10:57:30;3.00;96.00
33476;DHT22;19814;48.224;11.422;2024-01-15T10:59:56;3.30;95.50
33476;DHT22;19814;48.224;11.422;2024-01-15T11:02:22;3.70;94.90
33476;DHT22;19814;48.224;11.422;2024-01-15T11:04:47;4.00;93.80
33476;DHT22;19814;48.224;11.422;2024-01-15T11:07:13;4.20;93.10
33476;DHT22;19814;48.224;11.422;2024-01-15T11:09:39;4.10;93.00
33476;DHT22;19814;48.224;11.422;2024-01-15T11:12:09;3.80;93.50
33476;DHT22;19814;48.224;11.422;2024-01-15T11:14:47;3.60;93.90
33476;DHT22;19814;48.224;11.422;2024-01-15T11:17:13;3.50;93.80
33476;DHT22;19814;48.224;11.422;2024-01-15T11:19:46;3.30;94.00
33476;DHT22;19814;48.224;11.422;2024-01-15T11:24:56;4.30;93.80
33476;DHT22;19814;48.224;11.422;2024-01-15T11:30:10;8.90;89.70
33476;DHT22;19814;48.224;11.422;2024-01-15T11:32:36;11.20;77.20
33476;DHT22;19814;48.224;11.422;2024-01-15T11:35:02;12.70;74.50
33476;DHT22;19814;48.224;11.422;2024-01-15T11:37:28;13.30;68.20
33476;DHT22;19814;48.224;11.422;2024-01-15T11:39:55;14.80;62.90
33476;DHT22;19814;48.224;11.422;2024-01-15T11:42:21;15.00;59.10
33476;DHT22;19814;48.224;11.422;2024-01-15T11:44:47;15.40;56.00
33476;DHT22;19814;48.224;11.422;2024-01-15T11:47:13;15.20;55.90
33476;DHT22;19814;48.224;11.422;2024-01-15T11:52:23;15.50;55.50
33476;DHT22;19814;48.224;11.422;2024-01-15T11:54:55;15.60;52.10
33476;DHT22;19814;48.224;11.422;2024-01-15T11:57:24;15.10;54.40
33476;DHT22;19814;48.224;11.422;2024-01-15T11:59:51;15.20;55.40
33476;DHT22;19814;48.224;11.422;2024-01-15T12:02:17;15.90;52.40
33476;DHT22;19814;48.224;11.422;2024-01-15T12:04:42;16.40;51.40
33476;DHT22;19814;48.224;11.422;2024-01-15T12:07:08;15.80;51.50
33476;DHT22;19814;48.224;11.422;2024-01-15T12:09:33;15.60;52.50
33476;DHT22;19814;48.224;11.422;2024-01-15T12:12:02;15.70;52.00
33476;DHT22;19814;48.224;11.422;2024-01-15T12:14:31;15.70;50.70
33476;DHT22;19814;48.224;11.422;2024-01-15T12:16:56;14.90;50.80
33476;DHT22;19814;48.224;11.422;2024-01-15T12:19:22;13.40;53.40
33476;DHT22;19814;48.224;11.422;2024-01-15T12:21:50;11.80;56.50
33476;DHT22;19814;48.224;11.422;2024-01-15T12:24:16;11.70;58.40
33476;DHT22;19814;48.224;11.422;2024-01-15T12:26:42;11.70;58.20
33476;DHT22;19814;48.224;11.422;2024-01-15T12:29:07;13.90;55.70
33476;DHT22;19814;48.224;11.422;2024-01-15T12:31:32;15.40;51.70
33476;DHT22;19814;48.224;11.422;2024-01-15T12:33:58;16.10;50.50
33476;DHT22;19814;48.224;11.422;2024-01-15T12:36:23;17.10;49.20
33476;DHT22;19814;48.224;11.422;2024-01-15T12:38:49;17.90;47.50
33476;DHT22;19814;48.224;11.422;2024-01-15T12:41:14;17.50;47.20
33476;DHT22;19814;48.224;11.422;2024-01-15T12:43:40;16.60;48.90
33476;DHT22;19814;48.224;11.422;2024-01-15T12:46:05;16.40;48.80
33476;DHT22;19814;48.224;11.422;2024-01-15T12:48:31;16.30;49.20
33476;DHT22;19814;48.224;11.422;2024-01-15T12:50:56;16.30;49.10
33476;DHT22;19814;48.224;11.422;2024-01-15T12:53:22;15.50;48.90
33476;DHT22;19814;48.224;11.422;2024-01-15T12:55:47;14.30;50.90
33476;DHT22;19814;48.224;11.422;2024-01-15T12:58:13;12.50;53.60
33476;DHT22;19814;48.224;11.422;2024-01-15T13:00:39;11.60;55.50
33476;DHT22;19814;48.224;11.422;2024-01-15T13:03:05;10.60;57.80
33476;DHT22;19814;48.224;11.422;2024-01-15T13:05:31;9.90;58.50
33476;DHT22;19814;48.224;11.422;2024-01-15T13:07:57;8.90;61.50
33476;DHT22;19814;48.224;11.422;2024-01-15T13:10:24;8.00;63.50
33476;DHT22;19814;48.224;11.422;2024-01-15T13:12:50;7.00;66.70
33476;DHT22;19814;48.224;11.422;2024-01-15T13:15:16;6.30;68.70
33476;DHT22;19814;48.224;11.422;2024-01-15T13:17:41;5.30;71.90
33476;DHT22;19814;48.224;11.422;2024-01-15T13:20:07;4.80;74.80
33476;DHT22;19814;48.224;11.422;2024-01-15T13:22:33;4.50;76.40
33476;DHT22;19814;48.224;11.422;2024-01-15T13:24:59;4.30;77.90
33476;DHT22;19814;48.224;11.422;2024-01-15T13:27:25;3.90;79.40
33476;DHT22;19814;48.224;11.422;2024-01-15T13:29:51;3.80;80.40
33476;DHT22;19814;48.224;11.422;2024-01-15T13:32:23;3.70;81.20
33476;DHT22;19814;48.224;11.422;2024-01-15T13:34:49;3.80;82.00
33476;DHT22;19814;48.224;11.422;2024-01-15T13:37:14;3.80;82.50
33476;DHT22;19814;48.224;11.422;2024-01-15T13:39:40;3.80;83.30
33476;DHT22;19814;48.224;11.422;2024-01-15T13:42:05;3.50;83.80
33476;DHT22;19814;48.224;11.422;2024-01-15T13:44:31;3.40;85.40
33476;DHT22;19814;48.224;11.422;2024-01-15T13:46:56;3.40;86.30
33476;DHT22;19814;48.224;11.422;2024-01-15T13:49:22;3.40;86.80
33476;DHT22;19814;48.224;11.422;2024-01-15T13:51:49;3.30;87.40
33476;DHT22;19814;48.224;11.422;2024-01-15T13:54:15;3.40;88.40
33476;DHT22;19814;48.224;11.422;2024-01-15T13:56:40;3.40;88.10
33476;DHT22;19814;48.224;11.422;2024-01-15T13:59:06;3.40;88.70
33476;DHT22;19814;48.224;11.422;2024-01-15T14:01:32;3.40;89.00
33476;DHT22;19814;48.224;11.422;2024-01-15T14:03:58;3.30;89.90
33476;DHT22;19814;48.224;11.422;2024-01-15T14:06:24;3.40;90.20
33476;DHT22;19814;48.224;11.422;2024-01-15T14:08:49;3.30;90.70
33476;DHT22;19814;48.224;11.422;2024-01-15T14:11:15;3.30;90.90
33476;DHT22;19814;48.224;11.422;2024-01-15T14:13:40;3.30;90.90
33476;DHT22;19814;48.224;11.422;2024-01-15T14:16:06;3.10;91.50
33476;DHT22;19814;48.224;11.422;2024-01-15T14:18:31;3.00;91.80
33476;DHT22;19814;48.224;11.422;2024-01-15T14:20:57;2.90;92.00
33476;DHT22;19814;48.224;11.422;2024-01-15T14:23:23;2.80;92.90
33476;DHT22;19814;48.224;11.422;2024-01-15T14:25:48;2.70;93.70
33476;DHT22;19814;48.224;11.422;2024-01-15T14:28:14;2.60;94.20
33476;DHT22;19814;48.224;11.422;2024-01-15T14:30:39;2.60;94.20
33476;DHT22;19814;48.224;11.422;2024-01-15T14:33:04;2.50;94.10
33476;DHT22;19814;48.224;11.422;2024-01-15T14:35:30;2.50;94.70
33476;DHT22;19814;48.224;11.422;2024-01-15T14:37:55;2.50;94.80
33476;DHT22;19814;48.224;11.422;2024-01-15T14:40:24;2.40;94.70
33476;DHT22;19814;48.224;11.422;2024-01-15T14:42:50;2.40;95.00
33476;DHT22;19814;48.224;11.422;2024-01-15T14:45:16;2.40;94.80
33476;DHT22;19814;48.224;11.422;2024-01-15T14:47:42;2.30;95.20
33476;DHT22;19814;48.224;11.422;2024-01-15T14:50:08;2.20;95.60
33476;DHT22;19814;48.224;11.422;2024-01-15T14:52:35;2.30;95.60
33476;DHT22;19814;48.224;11.422;2024-01-15T14:55:01;2.30;95.50
33476;DHT22;19814;48.224;11.422;2024-01-15T14:57:27;2.20;95.50
33476;DHT22;19814;48.224;11.422;2024-01-15T14:59:52;2.20;95.70
33476;DHT22;19814;48.224;11.422;2024-01-15T15:02:18;2.30;95.40
33476;DHT22;19814;48.224;11.422;2024-01-15T15:04:43;2.30;95.50
33476;DHT22;19814;48.224;11.422;2024-01-15T15:07:09;2.30;95.40
33476;DHT22;19814;48.224;11.422;2024-01-15T15:09:35;2.30;95.30
33476;DHT22;19814;48.224;11.422;2024-01-15T15:12:03;2.20;95.20
33476;DHT22;19814;48.224;11.422;2024-01-15T15:14:30;2.10;95.30
33476;DHT22;19814;48.224;11.422;2024-01-15T15:16:57;2.00;95.50
33476;DHT22;19814;48.224;11.422;2024-01-15T15:19:22;2.00;95.80
33476;DHT22;19814;48.224;11.422;2024-01-15T15:21:48;1.80;95.90